Carrollton, TX

8:18 PM CST on November 22, 2014 (GMT -0600)
Dallas Love | Change Station
CLOSE
Current Station
Airport
Location: Dallas Love,
Elevation: 486 ft
Nearby Weather Stations

Elev 486 ft 32.85 °N, 96.86 °W | Updated 25 minutes ago

Rain
Rain
60 °F
Feels Like 60 °F
N
5
Wind Variable Wind from ENE

Today
High -- | Low -- °F
--% Chance of Precip.
Yesterday
High -- | Low -- °F
Precip. -- in
7:04 AM 5:22 PM
New Moon, 0% visible
Pressure 29.80 in
Visibility 8.0 miles
Clouds Few 1500 ft
Scattered Clouds 5000 ft
Overcast 10000 ft
Dew Point 58 °F
Humidity 93%
Rainfall 0.68 in
Snow Depth Not available.
UV 0 out of 12
Pollen .50 out of 12
Air Quality Not available.
Flu Activity Not available.
METAR KDAL 230153Z 07004KT 8SM -RA FEW015 SCT050 OVC100 16/14 A2981 RMK AO2 SLP090 P0008 T01560144

More Conditions Fewer Conditions

Pressure 29.80 in
Visibility 8.0 miles
Clouds Few 1500 ft
Scattered Clouds 5000 ft
Overcast 10000 ft
Dew Point 58 °F
Humidity 93%
Rainfall 0.68 in
Snow Depth Not available.
UV 0 out of 12
Pollen .50 out of 12
Air Quality Not available.
Flu Activity Not available.
METAR KDAL 230153Z 07004KT 8SM -RA FEW015 SCT050 OVC100 16/14 A2981 RMK AO2 SLP090 P0008 T01560144

More Conditions Fewer Conditions

Nowcast | as of 5:22 PM CST on November 22, 2014

Numerous showers and scattered thunderstorms continue to progress eastward across north and central Texas. The main hazards with thunderstorms will be gusty winds...lightning...and heavy rain. Rainfall amounts will generally range from 1 to 3 inches across the area. Widespread rain and isolated storms will continue across most of the area through the evening...before tapering off from west to east later tonight.

×

10-Day Weather Forecast

Almanac

Astronomy

Nov. 22, 2014 Rise Set
Actual Time
Civil Twilight
Nautical Twilight
Astronomical Twilight
Moon
Length of Visible Light
Length of Day
Tomorrow will be .
, % of the Moon is Illuminated

Today's Extremes

State Highs State Lows

Community

WunderPhotos

Upload Photos

1,772,971 photos uploaded!

WunderBlogs® & News

Nearby

Air Quality

  Air Quality AQ Index Pollutant
Not available.

Snow Depth

Station Depth Elevation

Earthquake Activity

City Distance Mag. Time & Date
Minimum magnitude displayed is 2.5.

Coastal Water Temperatures

Place Temperature

Nearby Weather Stations